Heafford Junction, WI

7:12 PM CDT on August 29, 2015 (GMT -0500)
RICE RESERVOIR | | Change Station
CLOSE
Current Station
Personal Weather Station
Location: Tomahawk, WI
Elevation: 1499 ft
Nearby Weather Stations

Elev 1499 ft 45.56 °N, 89.77 °W | Updated 7 minutes ago

Clear
Clear
70.8 °F
Feels Like 73 °F
N
0.0
Wind Variable Wind from South
Gusts 0.0 mph

Today
High -- | Low -- °F
--% Chance of Precip.
Yesterday
High -- | Low -- °F
Precip. -- in
6:16 AM 7:42 PM
Full, 100% visible
Pressure 30.05 in
Visibility 7.0 miles
Clouds Clear
Heat Index 73 °F
Dew Point 62 °F
Humidity 73%
Rainfall 0.00 in
Snow Depth Not available.
UV 0 out of 12
Pollen 8.90 out of 12
Air Quality Not available.
Flu Activity Not available.
METAR KTKV 292355Z AUTO 00000KT 7SM CLR 19/16 A3005 RMK AO2 T01900160 10226 20185
Pressure 30.05 in
Visibility 7.0 miles
Clouds Clear
Heat Index 73 °F
Dew Point 62 °F
Humidity 73%
Rainfall 0.00 in
Snow Depth Not available.
UV 0 out of 12
Pollen 8.90 out of 12
Air Quality Not available.
Flu Activity Not available.
METAR KTKV 292355Z AUTO 00000KT 7SM CLR 19/16 A3005 RMK AO2 T01900160 10226 20185

10-Day Weather Forecast

×

Almanac

Astronomy

Aug. 29, 2015 Rise Set
Actual Time
Civil Twilight
Nautical Twilight
Astronomical Twilight
Moon
Length of Visible Light
Length of Day
Tomorrow will be .
, % of the Moon is Illuminated

Today's Extremes

State Highs State Lows

Community

WunderPhotos

Upload Photos

1,850,790 photos uploaded!

WunderBlogs® & News

Nearby

Air Quality

  Air Quality AQ Index Pollutant
Not available.

Snow Depth

Station Depth Elevation

Earthquake Activity

City Distance Mag. Time & Date
Minimum magnitude displayed is 2.5.

Coastal Water Temperatures

Place Temperature

Stations

Nearby Weather Stations

Station Location Temp. Windchill Dew Point Humidity Wind Precip. Elev Updated Type